createdAt,value
2018-04-18T00:00:38.192Z,7.93
2018-04-18T00:03:06.254Z,9.60
2018-04-18T00:05:34.798Z,5.57
2018-04-18T00:08:02.862Z,5.83
2018-04-18T00:10:30.939Z,6.23
2018-04-18T00:12:59.335Z,7.70
2018-04-18T00:15:27.865Z,5.90
2018-04-18T00:17:55.930Z,5.70
2018-04-18T00:20:24.448Z,9.03
2018-04-18T00:22:52.510Z,7.33
2018-04-18T00:25:20.577Z,6.40
2018-04-18T00:27:48.806Z,7.53
2018-04-18T00:30:17.264Z,5.93
2018-04-18T00:32:45.335Z,9.47
2018-04-18T00:35:13.795Z,8.50
2018-04-18T00:37:41.848Z,8.63
2018-04-18T00:40:09.919Z,12.80
2018-04-18T00:42:38.631Z,10.50
2018-04-18T00:45:06.688Z,7.53
2018-04-18T00:47:34.792Z,9.67
2018-04-18T00:50:04.071Z,9.70
2018-04-18T00:52:32.128Z,7.00
2018-04-18T00:55:00.201Z,8.07
2018-04-18T00:57:28.581Z,7.60
2018-04-18T00:59:56.632Z,7.03
2018-04-18T01:02:24.697Z,12.53
2018-04-18T01:04:53.416Z,12.13
2018-04-18T01:07:21.475Z,9.83
2018-04-18T01:09:49.534Z,6.60
2018-04-18T01:12:17.945Z,14.27
2018-04-18T01:14:46.009Z,7.10
2018-04-18T01:17:14.559Z,11.93
2018-04-18T01:19:42.824Z,7.10
2018-04-18T01:22:10.872Z,8.00
2018-04-18T01:24:39.704Z,12.30
2018-04-18T01:27:08.242Z,6.77
2018-04-18T01:29:37.064Z,6.57
2018-04-18T01:32:05.134Z,11.93
2018-04-18T01:34:33.363Z,11.93
2018-04-18T01:37:01.414Z,13.03
2018-04-18T01:39:29.506Z,7.20
2018-04-18T01:41:57.876Z,9.53
2018-04-18T01:44:25.930Z,7.30
2018-04-18T01:46:54.010Z,9.97
2018-04-18T01:49:23.586Z,9.80
2018-04-18T01:51:51.637Z,8.17
2018-04-18T01:54:19.716Z,10.03
2018-04-18T01:56:48.131Z,13.23
2018-04-18T01:59:16.240Z,9.07
2018-04-18T02:01:44.258Z,11.57
2018-04-18T02:04:12.662Z,9.97
2018-04-18T02:06:40.725Z,11.43
2018-04-18T02:11:43.311Z,7.13
2018-04-18T02:14:11.383Z,13.47
2018-04-18T02:16:39.446Z,10.20
2018-04-18T02:19:08.508Z,9.27
2018-04-18T02:21:37.320Z,9.83
2018-04-18T02:24:05.374Z,14.77
2018-04-18T02:26:33.885Z,8.37
2018-04-18T02:29:01.986Z,10.97
2018-04-18T02:31:30.054Z,9.53
2018-04-18T02:33:58.732Z,10.67
2018-04-18T02:36:26.820Z,7.87
2018-04-18T02:38:55.647Z,8.30
2018-04-18T02:41:24.181Z,8.83
2018-04-18T02:43:52.251Z,8.17
2018-04-18T02:46:20.310Z,11.93
2018-04-18T02:48:48.701Z,10.70
2018-04-18T02:51:16.780Z,12.10
2018-04-18T02:53:44.847Z,13.80
2018-04-18T02:56:12.949Z,11.97
2018-04-18T02:58:41.024Z,14.63
2018-04-18T03:01:09.085Z,16.50
2018-04-18T03:03:37.424Z,11.60
2018-04-18T03:06:05.498Z,17.43
2018-04-18T03:08:33.556Z,15.77
2018-04-18T03:11:01.939Z,14.10
2018-04-18T03:13:30.020Z,14.80
2018-04-18T03:15:58.081Z,16.47
2018-04-18T03:18:26.244Z,13.03
2018-04-18T03:20:54.721Z,14.77
2018-04-18T03:23:23.284Z,16.90
2018-04-18T03:25:51.602Z,17.53
2018-04-18T03:28:19.661Z,15.60
2018-04-18T03:30:47.750Z,14.87
2018-04-18T03:33:15.853Z,14.43
2018-04-18T03:35:43.931Z,13.83
2018-04-18T03:38:12.021Z,15.30
2018-04-18T03:40:40.340Z,15.10
2018-04-18T03:43:08.408Z,16.43
2018-04-18T03:45:36.485Z,12.37
2018-04-18T03:48:04.921Z,15.07
2018-04-18T03:50:32.984Z,14.80
2018-04-18T03:53:01.054Z,15.50
2018-04-18T03:55:29.684Z,12.80
2018-04-18T03:57:57.773Z,15.37
2018-04-18T04:00:26.601Z,12.10
2018-04-18T04:02:55.129Z,11.33
2018-04-18T04:05:23.209Z,13.83
2018-04-18T04:07:51.273Z,12.33
2018-04-18T04:10:19.639Z,16.73
2018-04-18T04:12:47.741Z,15.07
2018-04-18T04:15:16.565Z,15.70
2018-04-18T04:17:56.329Z,15.40
2018-04-18T04:20:36.235Z,14.17
2018-04-18T04:23:17.343Z,18.10
2018-04-18T04:25:45.856Z,15.47
2018-04-18T04:28:13.927Z,15.67
2018-04-18T04:30:43.244Z,18.20
2018-04-18T04:33:12.549Z,21.13
2018-04-18T04:35:41.375Z,17.03
2018-04-18T04:38:09.477Z,15.23
2018-04-18T04:40:37.991Z,14.70
2018-04-18T04:43:06.053Z,16.67
2018-04-18T04:45:34.131Z,14.37
2018-04-18T04:48:02.485Z,15.73
2018-04-18T04:50:30.551Z,18.90
2018-04-18T04:52:58.650Z,14.90
2018-04-18T04:55:27.021Z,13.80
2018-04-18T04:57:55.090Z,15.90
2018-04-18T05:00:23.175Z,13.80
2018-04-18T05:02:52.461Z,18.60
2018-04-18T05:05:20.530Z,14.30
2018-04-18T05:07:48.615Z,13.23
2018-04-18T05:10:17.071Z,30.50
2018-04-18T05:12:45.120Z,15.10
2018-04-18T05:15:13.199Z,18.40
2018-04-18T05:17:41.813Z,16.63
2018-04-18T05:20:09.895Z,17.83
2018-04-18T05:22:38.730Z,15.50
2018-04-18T05:25:07.414Z,18.60
2018-04-18T05:27:35.496Z,14.73
2018-04-18T05:30:03.569Z,17.90
2018-04-18T05:32:32.071Z,29.93
2018-04-18T05:35:00.170Z,17.63
2018-04-18T05:37:28.999Z,15.00
2018-04-18T05:39:57.519Z,19.50
2018-04-18T05:42:25.609Z,16.23
2018-04-18T05:44:54.439Z,14.83
2018-04-18T05:47:22.655Z,15.20
2018-04-18T05:49:50.734Z,16.03
2018-04-18T05:52:18.805Z,19.03
2018-04-18T05:54:47.163Z,17.17
2018-04-18T05:57:15.235Z,18.23
2018-04-18T05:59:43.303Z,16.37
2018-04-18T06:02:11.991Z,14.57
2018-04-18T06:04:40.089Z,15.03
2018-04-18T06:07:09.341Z,16.50
2018-04-18T06:09:37.595Z,15.83
2018-04-18T06:12:05.669Z,15.20
2018-04-18T06:14:33.735Z,18.53
2018-04-18T06:17:02.265Z,14.17
2018-04-18T06:19:30.349Z,14.10
2018-04-18T06:21:58.447Z,14.77
2018-04-18T06:24:27.720Z,14.80
2018-04-18T06:26:56.757Z,18.60
2018-04-18T06:29:25.563Z,14.50
2018-04-18T06:31:54.076Z,14.30
2018-04-18T06:34:22.160Z,16.50
2018-04-18T06:36:50.225Z,16.05
2018-04-18T06:39:19.822Z,18.40
2018-04-18T06:41:47.916Z,21.77
2018-04-18T06:44:16.755Z,14.57
2018-04-18T06:46:45.275Z,19.20
2018-04-18T06:49:13.353Z,15.50
2018-04-18T06:51:41.422Z,17.07
2018-04-18T06:54:10.096Z,12.77
2018-04-18T06:56:38.157Z,19.40
2018-04-18T06:59:06.221Z,19.20
2018-04-18T07:01:34.642Z,15.40
2018-04-18T07:04:03.473Z,16.40
2018-04-18T07:06:31.541Z,16.77
2018-04-18T07:09:00.069Z,14.60
2018-04-18T07:11:28.127Z,15.90
2018-04-18T07:13:56.229Z,16.20
2018-04-18T07:16:25.489Z,21.57
2018-04-18T07:18:53.573Z,19.87
2018-04-18T07:21:21.703Z,17.10
2018-04-18T07:23:50.013Z,15.40
2018-04-18T07:26:18.089Z,18.40
2018-04-18T07:28:46.637Z,19.00
2018-04-18T07:31:15.171Z,18.37
2018-04-18T07:33:43.222Z,14.30
2018-04-18T07:36:11.328Z,16.97
2018-04-18T07:38:40.609Z,14.33
2018-04-18T07:41:08.682Z,17.27
2018-04-18T07:43:36.768Z,15.63
2018-04-18T07:46:06.032Z,16.50
2018-04-18T07:48:34.098Z,16.43
2018-04-18T07:51:02.378Z,18.47
2018-04-18T07:53:30.620Z,16.07
2018-04-18T07:55:58.691Z,17.93
2018-04-18T07:58:26.778Z,16.20
2018-04-18T08:00:55.200Z,16.97
2018-04-18T08:03:23.268Z,18.37
2018-04-18T08:05:51.342Z,17.10
2018-04-18T08:08:19.604Z,15.50
2018-04-18T08:10:47.682Z,16.20
2018-04-18T08:13:15.746Z,13.47
2018-04-18T08:15:44.142Z,17.27
2018-04-18T08:18:12.969Z,12.73
2018-04-18T08:20:41.042Z,15.00
2018-04-18T08:23:09.596Z,19.70
2018-04-18T08:25:38.436Z,15.80
2018-04-18T08:28:06.522Z,13.37
2018-04-18T08:30:34.870Z,11.07
2018-04-18T08:33:02.932Z,12.10
2018-04-18T08:35:31.018Z,12.80
2018-04-18T08:38:00.122Z,12.87
2018-04-18T08:40:28.189Z,13.63
2018-04-18T08:42:56.280Z,13.50
2018-04-18T08:45:24.987Z,13.80
2018-04-18T08:47:53.051Z,9.63
2018-04-18T08:50:21.142Z,8.93
2018-04-18T08:52:50.419Z,12.33
2018-04-18T08:55:18.479Z,7.83
2018-04-18T08:57:46.544Z,12.40
2018-04-18T09:00:14.943Z,8.40
2018-04-18T09:02:43.009Z,7.80
2018-04-18T09:05:11.085Z,9.67
2018-04-18T09:07:39.447Z,9.30
2018-04-18T09:10:07.518Z,11.40
2018-04-18T09:12:35.609Z,8.70
2018-04-18T09:15:03.993Z,9.50
2018-04-18T09:17:32.049Z,8.43
2018-04-18T09:20:00.110Z,11.63
2018-04-18T09:22:28.492Z,12.60
2018-04-18T09:24:56.545Z,9.47
2018-04-18T09:27:24.618Z,12.27
2018-04-18T09:29:53.019Z,12.90
2018-04-18T09:32:21.331Z,10.40
2018-04-18T09:34:49.397Z,12.70
2018-04-18T09:37:17.840Z,11.80
2018-04-18T09:39:45.982Z,12.70
2018-04-18T09:42:14.767Z,10.93
2018-04-18T09:44:43.285Z,12.13
2018-04-18T09:47:11.357Z,9.43
2018-04-18T09:49:39.422Z,17.23
2018-04-18T09:52:08.130Z,15.27
2018-04-18T09:54:36.189Z,15.43
2018-04-18T09:57:04.261Z,10.77
2018-04-18T09:59:32.972Z,8.50
2018-04-18T10:02:07.491Z,10.23
2018-04-18T10:04:51.425Z,10.40
2018-04-18T10:07:20.253Z,8.17
2018-04-18T10:09:48.565Z,7.53
2018-04-18T10:12:16.633Z,9.83
2018-04-18T10:14:44.711Z,6.80
2018-04-18T10:17:13.090Z,8.80
2018-04-18T10:19:41.154Z,11.03
2018-04-18T10:22:09.231Z,7.57
2018-04-18T10:24:37.608Z,11.70
2018-04-18T10:27:05.685Z,10.37
2018-04-18T10:29:33.748Z,6.73
2018-04-18T10:32:02.138Z,7.37
2018-04-18T10:34:30.871Z,8.77
2018-04-18T10:36:59.674Z,6.83
2018-04-18T10:39:28.202Z,5.53
2018-04-18T10:41:56.256Z,6.73
2018-04-18T10:44:24.311Z,7.43
2018-04-18T10:46:52.548Z,5.40
2018-04-18T10:49:20.605Z,7.03
2018-04-18T10:51:49.422Z,5.03
2018-04-18T10:54:18.005Z,6.30
2018-04-18T10:56:46.059Z,9.30
2018-04-18T10:59:14.105Z,6.03
2018-04-18T11:01:42.373Z,11.80
2018-04-18T11:04:10.430Z,7.83
2018-04-18T11:06:38.521Z,7.67
2018-04-18T11:09:07.197Z,5.63
2018-04-18T11:11:35.251Z,4.70
2018-04-18T11:14:03.331Z,8.87
2018-04-18T11:16:31.708Z,5.10
2018-04-18T11:18:59.770Z,5.27
2018-04-18T11:21:27.857Z,6.97
2018-04-18T11:23:56.546Z,6.20
2018-04-18T11:26:24.602Z,9.60
2018-04-18T11:28:52.672Z,7.27
2018-04-18T11:31:21.072Z,5.87
2018-04-18T11:33:49.134Z,8.90
2018-04-18T11:36:17.675Z,7.10
2018-04-18T11:38:46.185Z,5.30
2018-04-18T11:41:14.250Z,8.90
2018-04-18T11:43:42.341Z,5.80
2018-04-18T11:46:10.715Z,5.23
2018-04-18T11:48:38.767Z,5.80
2018-04-18T11:51:06.829Z,6.57
2018-04-18T11:53:35.241Z,6.30
2018-04-18T11:56:03.314Z,7.33
2018-04-18T11:58:31.370Z,4.70
2018-04-18T12:00:59.742Z,4.70
2018-04-18T12:03:27.818Z,13.40
2018-04-18T12:05:55.913Z,12.07
2018-04-18T12:08:24.066Z,6.30
2018-04-18T12:10:52.126Z,7.23
2018-04-18T12:13:20.203Z,8.03
2018-04-18T12:15:48.374Z,5.20
2018-04-18T12:18:16.431Z,7.00
2018-04-18T12:20:44.528Z,5.63
2018-04-18T12:23:13.010Z,4.20
2018-04-18T12:25:41.066Z,9.00
2018-04-18T12:28:09.144Z,13.83
2018-04-18T12:30:37.833Z,4.57
2018-04-18T12:33:05.924Z,10.53
2018-04-18T12:35:33.985Z,8.50
2018-04-18T12:38:02.241Z,3.67
2018-04-18T12:40:30.320Z,11.67
2018-04-18T12:42:58.385Z,5.93
2018-04-18T12:45:26.877Z,4.20
2018-04-18T12:47:54.945Z,4.43
2018-04-18T12:50:23.017Z,6.03
2018-04-18T12:52:51.704Z,4.50
2018-04-18T12:55:19.794Z,3.47
2018-04-18T12:57:47.855Z,14.07
2018-04-18T13:00:16.229Z,5.17
2018-04-18T13:02:44.324Z,4.73
2018-04-18T13:05:13.151Z,5.40
2018-04-18T13:07:41.671Z,6.40
2018-04-18T13:10:09.741Z,3.67
2018-04-18T13:12:37.796Z,3.47
2018-04-18T13:15:06.191Z,7.23
2018-04-18T13:17:34.290Z,4.80
2018-04-18T13:20:03.117Z,3.93
2018-04-18T13:22:31.627Z,5.10
2018-04-18T13:24:59.710Z,3.77
2018-04-18T13:27:27.764Z,8.80
2018-04-18T13:29:56.150Z,5.63
2018-04-18T13:32:24.219Z,6.27
2018-04-18T13:34:52.288Z,2.50
2018-04-18T13:37:20.672Z,7.20
2018-04-18T13:39:49.522Z,6.57
2018-04-18T13:42:17.584Z,6.03
2018-04-18T13:44:46.120Z,2.80
2018-04-18T13:47:14.197Z,4.40
2018-04-18T13:49:42.300Z,12.60
2018-04-18T13:52:11.560Z,4.73
2018-04-18T13:54:39.675Z,2.40
2018-04-18T13:57:07.710Z,7.90
2018-04-18T13:59:36.083Z,2.60
2018-04-18T14:02:04.155Z,4.40
2018-04-18T14:04:32.234Z,2.53
2018-04-18T14:07:00.596Z,5.53
2018-04-18T14:09:28.651Z,3.50
2018-04-18T14:11:56.748Z,7.43
2018-04-18T14:14:25.114Z,3.33
2018-04-18T14:16:53.177Z,8.53
2018-04-18T14:19:21.243Z,5.97
2018-04-18T14:21:49.638Z,4.60
2018-04-18T14:24:17.729Z,3.70
2018-04-18T14:26:45.802Z,12.90
2018-04-18T14:29:14.461Z,6.10
2018-04-18T14:31:42.665Z,2.77
2018-04-18T14:34:11.486Z,3.70
2018-04-18T14:36:40.218Z,3.20
2018-04-18T14:39:08.282Z,2.13
2018-04-18T14:41:36.831Z,2.53
2018-04-18T14:44:05.096Z,5.00
2018-04-18T14:46:33.145Z,2.57
2018-04-18T14:49:01.969Z,3.60
2018-04-18T14:51:30.501Z,2.57
2018-04-18T14:53:58.570Z,2.33
2018-04-18T14:56:26.624Z,2.30
2018-04-18T14:58:55.119Z,6.97
2018-04-18T15:01:23.134Z,4.23
2018-04-18T15:03:51.212Z,3.53
2018-04-18T15:06:19.846Z,3.33
2018-04-18T15:08:47.903Z,5.33
2018-04-18T15:11:15.953Z,5.67
2018-04-18T15:13:44.393Z,2.40
2018-04-18T15:16:12.453Z,2.33
2018-04-18T15:18:41.267Z,3.00
2018-04-18T15:21:09.822Z,2.23
2018-04-18T15:23:38.642Z,3.03
2018-04-18T15:26:06.693Z,3.07
2018-04-18T15:28:35.308Z,3.73
2018-04-18T15:31:04.125Z,5.67
2018-04-18T15:33:32.186Z,2.97
2018-04-18T15:36:00.679Z,2.33
2018-04-18T15:38:28.765Z,3.30
2018-04-18T15:40:56.835Z,2.50
2018-04-18T15:43:25.680Z,3.63
2018-04-18T15:45:53.741Z,2.63
2018-04-18T15:48:21.791Z,4.23
2018-04-18T15:50:50.043Z,3.10
2018-04-18T15:53:18.105Z,2.70
2018-04-18T15:55:46.160Z,2.80
2018-04-18T15:58:14.545Z,2.83
2018-04-18T16:00:42.638Z,3.70
2018-04-18T16:03:10.701Z,3.20
2018-04-18T16:05:39.067Z,3.03
2018-04-18T16:08:07.145Z,3.97
2018-04-18T16:10:35.210Z,5.90
2018-04-18T16:13:03.917Z,4.60
2018-04-18T16:15:32.808Z,2.63
2018-04-18T16:18:00.862Z,3.13
2018-04-18T16:20:28.912Z,7.63
2018-04-18T16:22:57.442Z,4.43
2018-04-18T16:25:26.268Z,2.50
2018-04-18T16:27:54.330Z,3.40
2018-04-18T16:30:34.504Z,8.20
2018-04-18T16:33:03.215Z,4.80
2018-04-18T16:35:31.320Z,2.30
2018-04-18T16:38:00.161Z,2.50
2018-04-18T16:40:28.356Z,3.00
2018-04-18T16:42:56.445Z,5.13
2018-04-18T16:45:25.440Z,3.90
2018-04-18T16:47:54.698Z,4.53
2018-04-18T16:50:22.768Z,2.80
2018-04-18T16:52:50.832Z,4.20
2018-04-18T16:55:19.256Z,3.63
2018-04-18T16:57:48.080Z,4.80
2018-04-18T17:00:16.147Z,3.97
2018-04-18T17:02:44.714Z,3.40
2018-04-18T17:05:13.536Z,3.20
2018-04-18T17:07:41.596Z,7.60
2018-04-18T17:10:10.121Z,3.23
2018-04-18T17:12:38.191Z,4.87
2018-04-18T17:15:06.294Z,8.70
2018-04-18T17:17:35.287Z,2.67
2018-04-18T17:20:04.123Z,3.90
2018-04-18T17:22:32.191Z,9.13
2018-04-18T17:25:00.701Z,7.10
2018-04-18T17:27:28.762Z,3.10
2018-04-18T17:29:56.814Z,2.33
2018-04-18T17:32:25.223Z,4.70
2018-04-18T17:34:53.276Z,2.87
2018-04-18T17:37:21.335Z,2.20
2018-04-18T17:39:49.775Z,4.50
2018-04-18T17:42:18.595Z,2.10
2018-04-18T17:44:46.644Z,3.93
2018-04-18T17:47:15.494Z,9.90
2018-04-18T17:49:43.532Z,3.17
2018-04-18T17:52:11.578Z,2.67
2018-04-18T17:54:40.020Z,2.50
2018-04-18T17:57:08.061Z,3.60
2018-04-18T17:59:36.138Z,4.90
2018-04-18T18:02:04.514Z,4.10
2018-04-18T18:04:32.570Z,5.43
2018-04-18T18:07:00.646Z,6.23
2018-04-18T18:09:29.040Z,10.90
2018-04-18T18:11:57.101Z,13.07
2018-04-18T18:14:25.200Z,6.40
2018-04-18T18:16:53.574Z,13.60
2018-04-18T18:19:21.641Z,23.23
2018-04-18T18:21:49.736Z,10.37
2018-04-18T18:24:18.868Z,7.70
2018-04-18T18:26:46.934Z,4.43
2018-04-18T18:29:15.004Z,8.67
2018-04-18T18:31:43.235Z,11.93
2018-04-18T18:34:11.284Z,9.27
2018-04-18T18:36:39.382Z,9.30
2018-04-18T18:39:08.067Z,11.47
2018-04-18T18:41:36.134Z,10.03
2018-04-18T18:44:04.195Z,11.80
2018-04-18T18:46:32.592Z,5.33
2018-04-18T18:49:01.110Z,10.03
2018-04-18T18:51:29.178Z,8.30
2018-04-18T18:53:57.543Z,4.70
2018-04-18T18:56:25.598Z,9.73
2018-04-18T18:58:53.664Z,3.83
2018-04-18T19:01:23.104Z,3.93
2018-04-18T19:03:51.189Z,4.47
2018-04-18T19:06:19.393Z,7.10
2018-04-18T19:08:47.968Z,7.97
2018-04-18T19:11:16.029Z,4.10
2018-04-18T19:13:44.136Z,6.90
2018-04-18T19:16:12.500Z,4.10
2018-04-18T19:18:40.561Z,9.10
2018-04-18T19:21:08.636Z,6.30
2018-04-18T19:23:37.322Z,5.40
2018-04-18T19:26:05.394Z,6.77
2018-04-18T19:28:33.631Z,4.20
2018-04-18T19:31:01.626Z,3.57
2018-04-18T19:33:29.684Z,5.53
2018-04-18T19:35:57.790Z,4.90
2018-04-18T19:38:26.406Z,4.10
2018-04-18T19:40:54.460Z,4.47
2018-04-18T19:43:23.288Z,9.90
2018-04-18T19:45:51.518Z,15.00
2018-04-18T19:48:20.358Z,13.57
2018-04-18T19:50:49.043Z,6.93
2018-04-18T19:53:17.570Z,6.00
2018-04-18T19:55:45.640Z,5.70
2018-04-18T19:58:14.064Z,4.50
2018-04-18T20:00:42.703Z,5.53
2018-04-18T20:03:10.757Z,5.43
2018-04-18T20:05:38.818Z,8.70
2018-04-18T20:08:07.251Z,7.83
2018-04-18T20:10:36.061Z,7.80
2018-04-18T20:13:04.131Z,8.57
2018-04-18T20:15:32.666Z,5.20
2018-04-18T20:18:00.736Z,7.03
2018-04-18T20:20:28.793Z,11.13
2018-04-18T20:22:56.911Z,5.83
2018-04-18T20:25:24.973Z,7.47
2018-04-18T20:27:53.793Z,8.23
2018-04-18T20:30:22.014Z,10.50
2018-04-18T20:32:50.125Z,12.03
2018-04-18T20:35:18.191Z,9.93
2018-04-18T20:37:46.511Z,14.40
2018-04-18T20:40:14.591Z,9.40
2018-04-18T20:42:48.553Z,10.63
2018-04-18T20:45:17.238Z,8.93
2018-04-18T20:47:45.303Z,8.23
2018-04-18T20:50:13.375Z,7.73
2018-04-18T20:52:42.839Z,8.90
2018-04-18T20:55:10.888Z,12.90
2018-04-18T20:57:39.716Z,9.70
2018-04-18T21:00:08.879Z,11.43
2018-04-18T21:02:36.937Z,9.40
2018-04-18T21:05:05.008Z,10.43
2018-04-18T21:07:34.140Z,14.43
2018-04-18T21:10:02.231Z,8.50
2018-04-18T21:12:31.400Z,5.97
2018-04-18T21:15:00.270Z,7.90
2018-04-18T21:17:28.331Z,9.30
2018-04-18T21:19:56.380Z,7.73
2018-04-18T21:22:25.011Z,10.70
2018-04-18T21:24:53.094Z,7.13
2018-04-18T21:27:21.144Z,10.90
2018-04-18T21:29:49.546Z,11.03
2018-04-18T21:32:17.608Z,7.90
2018-04-18T21:34:45.682Z,11.83
2018-04-18T21:37:14.046Z,16.43
2018-04-18T21:39:42.124Z,11.77
2018-04-18T21:42:10.184Z,13.10
2018-04-18T21:44:38.568Z,13.47
2018-04-18T21:47:06.636Z,8.13
2018-04-18T21:49:34.697Z,11.87
2018-04-18T21:52:03.104Z,15.67
2018-04-18T21:54:31.828Z,13.00
2018-04-18T21:57:00.630Z,13.50
2018-04-18T21:59:29.136Z,8.97
2018-04-18T22:01:57.728Z,10.40
2018-04-18T22:04:25.784Z,14.77
2018-04-18T22:06:54.285Z,16.37
2018-04-18T22:09:22.356Z,18.10
2018-04-18T22:11:50.414Z,14.70
2018-04-18T22:14:18.807Z,16.70
2018-04-18T22:16:46.944Z,13.50
2018-04-18T22:19:14.944Z,11.60
2018-04-18T22:21:43.324Z,16.00
2018-04-18T22:24:11.400Z,15.67
2018-04-18T22:26:39.452Z,15.07
2018-04-18T22:29:07.876Z,17.23
2018-04-18T22:31:36.705Z,12.90
2018-04-18T22:34:04.769Z,13.10
2018-04-18T22:36:33.293Z,12.13
2018-04-18T22:39:01.357Z,12.07
2018-04-18T22:41:29.421Z,14.10
2018-04-18T22:43:58.150Z,14.37
2018-04-18T22:46:26.975Z,12.80
2018-04-18T22:48:55.037Z,14.70
2018-04-18T22:51:23.559Z,12.80
2018-04-18T22:53:51.618Z,14.13
2018-04-18T22:56:20.175Z,12.13
2018-04-18T22:58:48.690Z,21.60
2018-04-18T23:01:16.748Z,12.63
2018-04-18T23:03:44.820Z,11.90
2018-04-18T23:06:13.204Z,12.23
2018-04-18T23:08:41.279Z,14.67
2018-04-18T23:11:09.363Z,9.53
2018-04-18T23:13:37.788Z,12.97
2018-04-18T23:16:05.862Z,15.10
2018-04-18T23:18:33.928Z,13.80
2018-04-18T23:21:02.554Z,11.77
2018-04-18T23:23:30.653Z,13.20
2018-04-18T23:25:59.492Z,17.33
2018-04-18T23:28:27.993Z,14.93
2018-04-18T23:30:56.074Z,19.73
2018-04-18T23:33:24.133Z,15.40
2018-04-18T23:35:52.536Z,17.67
2018-04-18T23:38:20.632Z,15.87
2018-04-18T23:40:48.703Z,18.40
2018-04-18T23:43:17.705Z,13.63
2018-04-18T23:45:45.805Z,16.80
2018-04-18T23:48:13.864Z,14.93
2018-04-18T23:50:42.193Z,17.40
2018-04-18T23:53:10.285Z,19.50
2018-04-18T23:55:39.118Z,23.90
2018-04-18T23:58:08.095Z,20.17
